sensor_id;sensor_type;location;lat;lon;timestamp;temperature;humidity
4910;DHT22;2470;49.868;8.660;2024-03-23T00:54:19;13.70;99.90
4910;DHT22;2470;49.868;8.660;2024-03-23T00:56:44;13.70;99.90
4910;DHT22;2470;49.868;8.660;2024-03-23T00:59:10;13.70;99.90
4910;DHT22;2470;49.868;8.660;2024-03-23T01:01:35;13.70;99.90
4910;DHT22;2470;49.868;8.660;2024-03-23T01:04:01;13.60;99.90
4910;DHT22;2470;49.868;8.660;2024-03-23T01:06:27;13.60;99.90
4910;DHT22;2470;49.868;8.660;2024-03-23T01:08:53;13.50;99.90
4910;DHT22;2470;49.868;8.660;2024-03-23T01:11:18;13.40;99.90
4910;DHT22;2470;49.868;8.660;2024-03-23T01:13:44;13.40;99.90
4910;DHT22;2470;49.868;8.660;2024-03-23T01:16:12;13.30;99.90
4910;DHT22;2470;49.868;8.660;2024-03-23T01:18:38;13.30;99.90
4910;DHT22;2470;49.868;8.660;2024-03-23T01:21:04;13.30;99.90
4910;DHT22;2470;49.868;8.660;2024-03-23T01:23:29;13.30;99.90
4910;DHT22;2470;49.868;8.660;2024-03-23T01:25:55;13.30;99.90
4910;DHT22;2470;49.868;8.660;2024-03-23T01:28:21;13.30;99.90
4910;DHT22;2470;49.868;8.660;2024-03-23T01:30:47;13.30;99.90
4910;DHT22;2470;49.868;8.660;2024-03-23T01:33:12;13.30;99.90
4910;DHT22;2470;49.868;8.660;2024-03-23T01:35:38;13.20;99.90
4910;DHT22;2470;49.868;8.660;2024-03-23T01:38:04;13.10;99.90
4910;DHT22;2470;49.868;8.660;2024-03-23T01:40:29;13.00;99.90
4910;DHT22;2470;49.868;8.660;2024-03-23T01:42:58;12.90;99.90
4910;DHT22;2470;49.868;8.660;2024-03-23T01:45:24;12.90;99.90
4910;DHT22;2470;49.868;8.660;2024-03-23T01:47:52;12.90;99.90
4910;DHT22;2470;49.868;8.660;2024-03-23T01:50:21;12.80;99.90
4910;DHT22;2470;49.868;8.660;2024-03-23T01:52:48;12.80;99.90
4910;DHT22;2470;49.868;8.660;2024-03-23T01:55:14;12.80;99.90
4910;DHT22;2470;49.868;8.660;2024-03-23T01:57:39;12.80;99.90
4910;DHT22;2470;49.868;8.660;2024-03-23T02:00:05;12.70;99.90
4910;DHT22;2470;49.868;8.660;2024-03-23T02:02:31;12.70;99.90
4910;DHT22;2470;49.868;8.660;2024-03-23T02:04:57;12.60;99.90
4910;DHT22;2470;49.868;8.660;2024-03-23T02:07:23;12.60;99.90
4910;DHT22;2470;49.868;8.660;2024-03-23T02:09:53;12.50;99.90
4910;DHT22;2470;49.868;8.660;2024-03-23T02:12:19;12.50;99.90
4910;DHT22;2470;49.868;8.660;2024-03-23T02:14:45;12.50;99.90
4910;DHT22;2470;49.868;8.660;2024-03-23T02:17:10;12.50;99.90
4910;DHT22;2470;49.868;8.660;2024-03-23T02:19:36;12.50;99.90
4910;DHT22;2470;49.868;8.660;2024-03-23T02:22:01;12.50;99.90
4910;DHT22;2470;49.868;8.660;2024-03-23T02:24:29;12.40;99.90
4910;DHT22;2470;49.868;8.660;2024-03-23T02:26:54;12.40;99.90
4910;DHT22;2470;49.868;8.660;2024-03-23T02:29:20;12.40;99.90
4910;DHT22;2470;49.868;8.660;2024-03-23T02:31:46;12.40;99.90
4910;DHT22;2470;49.868;8.660;2024-03-23T02:34:11;12.40;99.90
4910;DHT22;2470;49.868;8.660;2024-03-23T02:36:37;12.40;99.90
4910;DHT22;2470;49.868;8.660;2024-03-23T02:39:02;12.50;99.90
4910;DHT22;2470;49.868;8.660;2024-03-23T02:41:28;12.50;99.90
4910;DHT22;2470;49.868;8.660;2024-03-23T02:43:53;12.50;99.90
4910;DHT22;2470;49.868;8.660;2024-03-23T02:46:19;12.50;99.90
4910;DHT22;2470;49.868;8.660;2024-03-23T02:48:44;12.50;99.90
4910;DHT22;2470;49.868;8.660;2024-03-23T02:51:10;12.50;99.90
4910;DHT22;2470;49.868;8.660;2024-03-23T02:53:35;12.50;99.90
4910;DHT22;2470;49.868;8.660;2024-03-23T02:56:01;12.60;99.90
4910;DHT22;2470;49.868;8.660;2024-03-23T02:58:26;12.50;99.90
4910;DHT22;2470;49.868;8.660;2024-03-23T03:00:52;12.50;99.90
4910;DHT22;2470;49.868;8.660;2024-03-23T03:03:17;12.40;99.90
4910;DHT22;2470;49.868;8.660;2024-03-23T03:05:43;12.40;99.90
4910;DHT22;2470;49.868;8.660;2024-03-23T03:08:08;12.30;99.90
4910;DHT22;2470;49.868;8.660;2024-03-23T03:10:34;12.30;99.90
4910;DHT22;2470;49.868;8.660;2024-03-23T03:13:01;12.30;99.90
4910;DHT22;2470;49.868;8.660;2024-03-23T03:15:27;12.40;99.90
4910;DHT22;2470;49.868;8.660;2024-03-23T03:17:53;12.30;99.90
4910;DHT22;2470;49.868;8.660;2024-03-23T03:20:18;12.20;99.90
4910;DHT22;2470;49.868;8.660;2024-03-23T03:22:44;12.20;99.90
4910;DHT22;2470;49.868;8.660;2024-03-23T03:25:09;12.20;99.90
4910;DHT22;2470;49.868;8.660;2024-03-23T03:27:35;12.20;99.90
4910;DHT22;2470;49.868;8.660;2024-03-23T03:30:01;12.20;99.90
4910;DHT22;2470;49.868;8.660;2024-03-23T03:32:29;12.30;99.90
4910;DHT22;2470;49.868;8.660;2024-03-23T03:34:54;12.30;99.90
4910;DHT22;2470;49.868;8.660;2024-03-23T03:37:20;12.30;99.90
4910;DHT22;2470;49.868;8.660;2024-03-23T03:39:45;12.30;99.90
4910;DHT22;2470;49.868;8.660;2024-03-23T03:42:11;12.20;99.90
4910;DHT22;2470;49.868;8.660;2024-03-23T03:44:36;12.20;99.90
4910;DHT22;2470;49.868;8.660;2024-03-23T03:47:02;12.10;99.90
4910;DHT22;2470;49.868;8.660;2024-03-23T03:49:28;12.10;99.90
4910;DHT22;2470;49.868;8.660;2024-03-23T03:51:53;12.00;99.90
4910;DHT22;2470;49.868;8.660;2024-03-23T03:54:19;12.00;99.90
4910;DHT22;2470;49.868;8.660;2024-03-23T03:56:44;12.00;99.90
4910;DHT22;2470;49.868;8.660;2024-03-23T03:59:10;12.00;99.90
4910;DHT22;2470;49.868;8.660;2024-03-23T04:01:35;12.00;99.90
4910;DHT22;2470;49.868;8.660;2024-03-23T04:04:01;12.00;99.90
4910;DHT22;2470;49.868;8.660;2024-03-23T04:06:26;11.90;99.90
4910;DHT22;2470;49.868;8.660;2024-03-23T04:08:52;11.90;99.90
4910;DHT22;2470;49.868;8.660;2024-03-23T04:11:18;11.90;99.90
4910;DHT22;2470;49.868;8.660;2024-03-23T04:13:43;11.80;99.90
4910;DHT22;2470;49.868;8.660;2024-03-23T04:16:09;11.90;99.90
4910;DHT22;2470;49.868;8.660;2024-03-23T04:18:35;11.90;99.90
4910;DHT22;2470;49.868;8.660;2024-03-23T04:21:00;11.90;99.90
4910;DHT22;2470;49.868;8.660;2024-03-23T04:23:26;11.90;99.90
4910;DHT22;2470;49.868;8.660;2024-03-23T04:25:51;12.00;99.90
4910;DHT22;2470;49.868;8.660;2024-03-23T04:28:18;12.00;99.90
4910;DHT22;2470;49.868;8.660;2024-03-23T04:30:44;12.00;99.90
4910;DHT22;2470;49.868;8.660;2024-03-23T04:33:09;12.00;99.90
4910;DHT22;2470;49.868;8.660;2024-03-23T04:35:35;12.00;99.90
4910;DHT22;2470;49.868;8.660;2024-03-23T04:38:01;12.00;99.90
4910;DHT22;2470;49.868;8.660;2024-03-23T04:40:26;12.00;99.90
4910;DHT22;2470;49.868;8.660;2024-03-23T04:42:52;11.80;99.90
4910;DHT22;2470;49.868;8.660;2024-03-23T04:45:17;11.60;99.90
4910;DHT22;2470;49.868;8.660;2024-03-23T04:47:43;11.30;99.90
4910;DHT22;2470;49.868;8.660;2024-03-23T04:50:09;11.00;99.90
4910;DHT22;2470;49.868;8.660;2024-03-23T04:52:36;10.70;99.90
4910;DHT22;2470;49.868;8.660;2024-03-23T04:55:01;10.50;99.90
4910;DHT22;2470;49.868;8.660;2024-03-23T04:57:27;10.30;99.90
4910;DHT22;2470;49.868;8.660;2024-03-23T04:59:52;10.20;99.90
4910;DHT22;2470;49.868;8.660;2024-03-23T05:02:18;10.20;99.90
4910;DHT22;2470;49.868;8.660;2024-03-23T05:04:43;10.20;99.90
4910;DHT22;2470;49.868;8.660;2024-03-23T05:07:09;10.10;99.90
4910;DHT22;2470;49.868;8.660;2024-03-23T05:09:34;10.00;99.90
4910;DHT22;2470;49.868;8.660;2024-03-23T05:12:00;10.00;99.90
4910;DHT22;2470;49.868;8.660;2024-03-23T05:14:26;9.90;99.90
4910;DHT22;2470;49.868;8.660;2024-03-23T05:16:52;9.80;99.90
4910;DHT22;2470;49.868;8.660;2024-03-23T05:19:18;9.80;99.90
4910;DHT22;2470;49.868;8.660;2024-03-23T05:21:43;9.80;99.90
4910;DHT22;2470;49.868;8.660;2024-03-23T05:24:09;9.90;99.90
4910;DHT22;2470;49.868;8.660;2024-03-23T05:26:35;9.90;99.90
4910;DHT22;2470;49.868;8.660;2024-03-23T05:29:01;9.80;99.90
4910;DHT22;2470;49.868;8.660;2024-03-23T05:31:31;9.80;99.90
4910;DHT22;2470;49.868;8.660;2024-03-23T05:33:57;9.80;99.90
4910;DHT22;2470;49.868;8.660;2024-03-23T05:36:22;9.70;99.90
4910;DHT22;2470;49.868;8.660;2024-03-23T05:38:49;9.70;99.90
4910;DHT22;2470;49.868;8.660;2024-03-23T05:41:15;9.80;99.90
4910;DHT22;2470;49.868;8.660;2024-03-23T05:43:40;9.80;99.90
4910;DHT22;2470;49.868;8.660;2024-03-23T05:46:06;9.80;99.90
4910;DHT22;2470;49.868;8.660;2024-03-23T05:48:33;9.80;99.90
4910;DHT22;2470;49.868;8.660;2024-03-23T05:50:58;9.70;99.90
4910;DHT22;2470;49.868;8.660;2024-03-23T05:53:24;9.80;99.90
4910;DHT22;2470;49.868;8.660;2024-03-23T05:55:51;9.70;99.90
4910;DHT22;2470;49.868;8.660;2024-03-23T05:58:19;9.70;99.90
4910;DHT22;2470;49.868;8.660;2024-03-23T06:00:45;9.60;99.90
4910;DHT22;2470;49.868;8.660;2024-03-23T06:03:11;9.50;99.90
4910;DHT22;2470;49.868;8.660;2024-03-23T06:05:37;9.50;99.90
4910;DHT22;2470;49.868;8.660;2024-03-23T06:08:03;9.50;99.90
4910;DHT22;2470;49.868;8.660;2024-03-23T06:10:29;9.50;99.90
4910;DHT22;2470;49.868;8.660;2024-03-23T06:12:54;9.40;99.90
4910;DHT22;2470;49.868;8.660;2024-03-23T06:15:20;9.50;99.90
4910;DHT22;2470;49.868;8.660;2024-03-23T06:17:47;9.50;99.90
4910;DHT22;2470;49.868;8.660;2024-03-23T06:20:13;9.40;99.90
4910;DHT22;2470;49.868;8.660;2024-03-23T06:22:38;9.30;99.90
4910;DHT22;2470;49.868;8.660;2024-03-23T06:25:04;9.40;99.90
4910;DHT22;2470;49.868;8.660;2024-03-23T06:27:30;9.40;99.90
4910;DHT22;2470;49.868;8.660;2024-03-23T06:29:57;9.40;99.90
4910;DHT22;2470;49.868;8.660;2024-03-23T06:32:23;9.40;99.90
4910;DHT22;2470;49.868;8.660;2024-03-23T06:34:48;9.30;99.90
4910;DHT22;2470;49.868;8.660;2024-03-23T06:37:14;9.40;99.90
4910;DHT22;2470;49.868;8.660;2024-03-23T06:39:39;9.40;99.90
4910;DHT22;2470;49.868;8.660;2024-03-23T06:42:05;9.50;99.90
4910;DHT22;2470;49.868;8.660;2024-03-23T06:44:31;9.50;99.90
4910;DHT22;2470;49.868;8.660;2024-03-23T06:46:57;9.40;99.90
4910;DHT22;2470;49.868;8.660;2024-03-23T06:49:23;9.40;99.90
4910;DHT22;2470;49.868;8.660;2024-03-23T06:51:48;9.40;99.90
4910;DHT22;2470;49.868;8.660;2024-03-23T06:54:14;9.50;99.90
4910;DHT22;2470;49.868;8.660;2024-03-23T06:56:40;9.50;99.90
4910;DHT22;2470;49.868;8.660;2024-03-23T06:59:06;9.50;99.90
4910;DHT22;2470;49.868;8.660;2024-03-23T07:01:31;9.50;99.90
4910;DHT22;2470;49.868;8.660;2024-03-23T07:03:57;9.60;99.90
4910;DHT22;2470;49.868;8.660;2024-03-23T07:06:22;9.50;99.90
4910;DHT22;2470;49.868;8.660;2024-03-23T07:08:48;9.50;99.90
4910;DHT22;2470;49.868;8.660;2024-03-23T07:11:20;9.40;99.90
4910;DHT22;2470;49.868;8.660;2024-03-23T07:13:46;9.40;99.90
4910;DHT22;2470;49.868;8.660;2024-03-23T07:16:13;9.40;99.90
4910;DHT22;2470;49.868;8.660;2024-03-23T07:18:38;9.50;99.90
4910;DHT22;2470;49.868;8.660;2024-03-23T07:21:04;9.50;99.90
4910;DHT22;2470;49.868;8.660;2024-03-23T07:23:32;9.50;99.90
4910;DHT22;2470;49.868;8.660;2024-03-23T07:26:01;9.50;99.90
4910;DHT22;2470;49.868;8.660;2024-03-23T07:28:27;9.50;99.90
4910;DHT22;2470;49.868;8.660;2024-03-23T07:31:07;9.50;99.90
4910;DHT22;2470;49.868;8.660;2024-03-23T07:33:37;9.60;99.90
4910;DHT22;2470;49.868;8.660;2024-03-23T07:36:03;9.60;99.90
4910;DHT22;2470;49.868;8.660;2024-03-23T07:38:29;9.60;99.90
4910;DHT22;2470;49.868;8.660;2024-03-23T07:43:30;9.80;99.90
4910;DHT22;2470;49.868;8.660;2024-03-23T07:45:55;9.80;99.90
4910;DHT22;2470;49.868;8.660;2024-03-23T07:48:21;9.80;99.90
4910;DHT22;2470;49.868;8.660;2024-03-23T07:51:07;9.80;99.90
4910;DHT22;2470;49.868;8.660;2024-03-23T07:53:33;9.90;99.90
4910;DHT22;2470;49.868;8.660;2024-03-23T07:56:01;9.80;99.90
4910;DHT22;2470;49.868;8.660;2024-03-23T07:58:27;9.80;99.90
4910;DHT22;2470;49.868;8.660;2024-03-23T08:00:56;9.70;99.90
4910;DHT22;2470;49.868;8.660;2024-03-23T08:03:22;9.70;99.90
4910;DHT22;2470;49.868;8.660;2024-03-23T08:05:48;9.60;99.90
4910;DHT22;2470;49.868;8.660;2024-03-23T08:08:14;9.70;99.90
4910;DHT22;2470;49.868;8.660;2024-03-23T08:10:52;9.70;99.90
4910;DHT22;2470;49.868;8.660;2024-03-23T08:13:21;9.70;99.90
4910;DHT22;2470;49.868;8.660;2024-03-23T08:15:47;9.70;99.90
4910;DHT22;2470;49.868;8.660;2024-03-23T08:18:12;9.70;99.90
4910;DHT22;2470;49.868;8.660;2024-03-23T08:20:39;9.70;99.90
4910;DHT22;2470;49.868;8.660;2024-03-23T08:23:07;9.70;99.90
4910;DHT22;2470;49.868;8.660;2024-03-23T08:25:34;9.70;99.90
4910;DHT22;2470;49.868;8.660;2024-03-23T08:27:59;9.70;99.90
4910;DHT22;2470;49.868;8.660;2024-03-23T08:30:25;9.60;99.90
4910;DHT22;2470;49.868;8.660;2024-03-23T08:32:51;9.40;99.90
4910;DHT22;2470;49.868;8.660;2024-03-23T08:35:17;9.20;99.90
4910;DHT22;2470;49.868;8.660;2024-03-23T08:37:42;9.30;99.90
4910;DHT22;2470;49.868;8.660;2024-03-23T08:40:08;9.30;99.90
4910;DHT22;2470;49.868;8.660;2024-03-23T08:42:34;9.40;99.90
4910;DHT22;2470;49.868;8.660;2024-03-23T08:45:00;9.50;99.90
4910;DHT22;2470;49.868;8.660;2024-03-23T08:47:25;9.60;99.90
4910;DHT22;2470;49.868;8.660;2024-03-23T08:49:51;9.70;99.90
4910;DHT22;2470;49.868;8.660;2024-03-23T08:52:16;9.70;99.90
4910;DHT22;2470;49.868;8.660;2024-03-23T08:54:42;9.70;99.90
4910;DHT22;2470;49.868;8.660;2024-03-23T08:57:08;9.70;99.90
4910;DHT22;2470;49.868;8.660;2024-03-23T08:59:34;9.80;99.90
4910;DHT22;2470;49.868;8.660;2024-03-23T09:02:00;10.00;99.90
4910;DHT22;2470;49.868;8.660;2024-03-23T09:04:25;10.00;99.90
4910;DHT22;2470;49.868;8.660;2024-03-23T09:06:51;10.10;99.90
4910;DHT22;2470;49.868;8.660;2024-03-23T09:09:17;10.20;99.90
4910;DHT22;2470;49.868;8.660;2024-03-23T09:11:43;10.20;99.90
4910;DHT22;2470;49.868;8.660;2024-03-23T09:14:11;10.30;99.90
4910;DHT22;2470;49.868;8.660;2024-03-23T09:16:37;10.50;99.90
4910;DHT22;2470;49.868;8.660;2024-03-23T09:19:02;10.60;99.90
4910;DHT22;2470;49.868;8.660;2024-03-23T09:21:28;10.60;99.90
4910;DHT22;2470;49.868;8.660;2024-03-23T09:23:53;10.50;99.90
4910;DHT22;2470;49.868;8.660;2024-03-23T09:26:19;10.40;99.90
4910;DHT22;2470;49.868;8.660;2024-03-23T09:28:44;10.50;99.90
4910;DHT22;2470;49.868;8.660;2024-03-23T09:31:10;10.50;99.90
4910;DHT22;2470;49.868;8.660;2024-03-23T09:33:39;10.60;99.90
4910;DHT22;2470;49.868;8.660;2024-03-23T09:36:05;10.60;99.90
4910;DHT22;2470;49.868;8.660;2024-03-23T09:38:31;10.70;99.90
4910;DHT22;2470;49.868;8.660;2024-03-23T09:40:58;10.80;99.90
4910;DHT22;2470;49.868;8.660;2024-03-23T09:43:24;10.90;99.90
4910;DHT22;2470;49.868;8.660;2024-03-23T09:45:50;11.00;99.90
4910;DHT22;2470;49.868;8.660;2024-03-23T09:48:15;10.80;99.90
4910;DHT22;2470;49.868;8.660;2024-03-23T09:50:43;10.80;99.90
4910;DHT22;2470;49.868;8.660;2024-03-23T09:53:11;10.90;99.90
4910;DHT22;2470;49.868;8.660;2024-03-23T09:55:38;10.80;99.90
4910;DHT22;2470;49.868;8.660;2024-03-23T09:58:05;10.70;99.90
4910;DHT22;2470;49.868;8.660;2024-03-23T10:00:41;10.60;99.90
4910;DHT22;2470;49.868;8.660;2024-03-23T10:03:06;10.50;99.90
4910;DHT22;2470;49.868;8.660;2024-03-23T10:05:32;10.50;99.90
4910;DHT22;2470;49.868;8.660;2024-03-23T10:08:17;10.50;99.90
4910;DHT22;2470;49.868;8.660;2024-03-23T10:10:45;10.50;99.90
4910;DHT22;2470;49.868;8.660;2024-03-23T10:13:11;10.50;99.90
4910;DHT22;2470;49.868;8.660;2024-03-23T10:15:38;10.60;99.90
4910;DHT22;2470;49.868;8.660;2024-03-23T10:18:20;10.80;99.90
4910;DHT22;2470;49.868;8.660;2024-03-23T10:23:30;11.30;99.90
4910;DHT22;2470;49.868;8.660;2024-03-23T10:28:56;11.40;98.60
4910;DHT22;2470;49.868;8.660;2024-03-23T10:31:42;11.30;98.20
4910;DHT22;2470;49.868;8.660;2024-03-23T10:34:08;11.40;98.20
4910;DHT22;2470;49.868;8.660;2024-03-23T10:36:34;11.50;97.10
4910;DHT22;2470;49.868;8.660;2024-03-23T10:39:05;11.70;95.90
4910;DHT22;2470;49.868;8.660;2024-03-23T10:41:32;11.70;94.80
4910;DHT22;2470;49.868;8.660;2024-03-23T10:44:00;11.70;93.50
4910;DHT22;2470;49.868;8.660;2024-03-23T10:46:26;11.50;93.00
4910;DHT22;2470;49.868;8.660;2024-03-23T10:48:52;11.40;93.00
4910;DHT22;2470;49.868;8.660;2024-03-23T10:51:18;11.40;91.90
4910;DHT22;2470;49.868;8.660;2024-03-23T10:53:45;11.30;90.30
4910;DHT22;2470;49.868;8.660;2024-03-23T10:56:12;11.10;89.80
4910;DHT22;2470;49.868;8.660;2024-03-23T10:58:42;10.90;90.30
4910;DHT22;2470;49.868;8.660;2024-03-23T11:01:12;10.60;93.70
4910;DHT22;2470;49.868;8.660;2024-03-23T11:03:40;10.00;99.80
4910;DHT22;2470;49.868;8.660;2024-03-23T11:06:09;9.60;99.90
4910;DHT22;2470;49.868;8.660;2024-03-23T11:08:39;9.20;99.90
4910;DHT22;2470;49.868;8.660;2024-03-23T11:11:24;8.90;99.90
4910;DHT22;2470;49.868;8.660;2024-03-23T11:13:54;8.50;99.90
4910;DHT22;2470;49.868;8.660;2024-03-23T11:16:29;8.30;99.90
4910;DHT22;2470;49.868;8.660;2024-03-23T11:19:36;8.30;99.90
4910;DHT22;2470;49.868;8.660;2024-03-23T11:22:03;8.30;99.90
4910;DHT22;2470;49.868;8.660;2024-03-23T11:24:32;8.40;99.90
4910;DHT22;2470;49.868;8.660;2024-03-23T11:26:57;8.40;99.90
4910;DHT22;2470;49.868;8.660;2024-03-23T11:29:29;8.30;99.90
4910;DHT22;2470;49.868;8.660;2024-03-23T11:31:55;8.40;99.90
4910;DHT22;2470;49.868;8.660;2024-03-23T11:34:21;8.30;99.90
4910;DHT22;2470;49.868;8.660;2024-03-23T11:36:47;8.40;99.90
4910;DHT22;2470;49.868;8.660;2024-03-23T11:39:17;8.40;99.90
4910;DHT22;2470;49.868;8.660;2024-03-23T11:41:51;8.30;99.90
4910;DHT22;2470;49.868;8.660;2024-03-23T11:46:46;8.40;99.90
4910;DHT22;2470;49.868;8.660;2024-03-23T11:49:26;8.60;99.90
4910;DHT22;2470;49.868;8.660;2024-03-23T11:51:53;8.90;99.90
4910;DHT22;2470;49.868;8.660;2024-03-23T11:54:23;9.30;99.90
4910;DHT22;2470;49.868;8.660;2024-03-23T11:59:31;10.30;99.90
4910;DHT22;2470;49.868;8.660;2024-03-23T12:01:57;10.70;99.90
4910;DHT22;2470;49.868;8.660;2024-03-23T12:04:29;10.80;99.90
4910;DHT22;2470;49.868;8.660;2024-03-23T12:09:35;10.60;99.90
4910;DHT22;2470;49.868;8.660;2024-03-23T12:12:15;10.60;99.90
4910;DHT22;2470;49.868;8.660;2024-03-23T12:14:45;10.60;99.90
4910;DHT22;2470;49.868;8.660;2024-03-23T12:17:26;10.70;99.90
4910;DHT22;2470;49.868;8.660;2024-03-23T12:19:51;11.10;99.90
4910;DHT22;2470;49.868;8.660;2024-03-23T12:22:21;11.50;99.90
4910;DHT22;2470;49.868;8.660;2024-03-23T12:24:47;12.00;99.90
4910;DHT22;2470;49.868;8.660;2024-03-23T12:27:12;12.20;99.90
4910;DHT22;2470;49.868;8.660;2024-03-23T12:29:38;12.10;97.00
4910;DHT22;2470;49.868;8.660;2024-03-23T12:32:04;11.90;96.60
4910;DHT22;2470;49.868;8.660;2024-03-23T12:34:30;11.80;95.60
4910;DHT22;2470;49.868;8.660;2024-03-23T12:37:14;11.90;95.10
4910;DHT22;2470;49.868;8.660;2024-03-23T12:39:42;12.00;94.00
4910;DHT22;2470;49.868;8.660;2024-03-23T12:42:08;12.20;94.00
4910;DHT22;2470;49.868;8.660;2024-03-23T12:44:33;12.40;93.70
4910;DHT22;2470;49.868;8.660;2024-03-23T12:46:59;12.40;93.40
4910;DHT22;2470;49.868;8.660;2024-03-23T12:49:24;12.30;93.80
4910;DHT22;2470;49.868;8.660;2024-03-23T12:51:54;12.10;93.60
4910;DHT22;2470;49.868;8.660;2024-03-23T12:54:21;11.80;94.30
4910;DHT22;2470;49.868;8.660;2024-03-23T12:56:46;11.80;95.40
4910;DHT22;2470;49.868;8.660;2024-03-23T12:59:12;11.80;95.10
4910;DHT22;2470;49.868;8.660;2024-03-23T13:01:38;11.80;95.70
4910;DHT22;2470;49.868;8.660;2024-03-23T13:04:04;11.70;95.50
4910;DHT22;2470;49.868;8.660;2024-03-23T13:06:30;11.40;96.20
4910;DHT22;2470;49.868;8.660;2024-03-23T13:09:02;11.20;96.30
4910;DHT22;2470;49.868;8.660;2024-03-23T13:11:29;11.00;97.80
4910;DHT22;2470;49.868;8.660;2024-03-23T13:13:54;10.70;98.60
4910;DHT22;2470;49.868;8.660;2024-03-23T13:16:20;10.40;99.00
4910;DHT22;2470;49.868;8.660;2024-03-23T13:18:45;10.10;99.60
4910;DHT22;2470;49.868;8.660;2024-03-23T13:21:11;9.90;99.90
4910;DHT22;2470;49.868;8.660;2024-03-23T13:23:36;9.70;99.90
4910;DHT22;2470;49.868;8.660;2024-03-23T13:26:03;9.00;99.90
4910;DHT22;2470;49.868;8.660;2024-03-23T13:28:29;8.30;99.90
4910;DHT22;2470;49.868;8.660;2024-03-23T13:30:55;7.70;99.90
4910;DHT22;2470;49.868;8.660;2024-03-23T13:33:21;7.50;99.90
4910;DHT22;2470;49.868;8.660;2024-03-23T13:35:51;7.50;99.90
4910;DHT22;2470;49.868;8.660;2024-03-23T13:38:17;7.50;99.90
4910;DHT22;2470;49.868;8.660;2024-03-23T13:40:59;7.60;99.90
4910;DHT22;2470;49.868;8.660;2024-03-23T13:43:26;8.00;99.90
4910;DHT22;2470;49.868;8.660;2024-03-23T13:45:56;8.30;99.90
4910;DHT22;2470;49.868;8.660;2024-03-23T13:48:23;8.50;99.90
4910;DHT22;2470;49.868;8.660;2024-03-23T13:50:59;8.50;99.90
4910;DHT22;2470;49.868;8.660;2024-03-23T13:53:25;8.80;99.90
4910;DHT22;2470;49.868;8.660;2024-03-23T13:55:51;10.20;99.90
4910;DHT22;2470;49.868;8.660;2024-03-23T13:58:16;11.00;99.90
4910;DHT22;2470;49.868;8.660;2024-03-23T14:00:42;10.80;99.90
4910;DHT22;2470;49.868;8.660;2024-03-23T14:03:09;10.70;99.90
4910;DHT22;2470;49.868;8.660;2024-03-23T14:05:34;10.70;99.90
4910;DHT22;2470;49.868;8.660;2024-03-23T14:08:00;10.50;99.90
4910;DHT22;2470;49.868;8.660;2024-03-23T14:10:26;10.30;99.90
4910;DHT22;2470;49.868;8.660;2024-03-23T14:12:53;10.70;99.90
4910;DHT22;2470;49.868;8.660;2024-03-23T14:15:18;13.10;99.90
4910;DHT22;2470;49.868;8.660;2024-03-23T14:17:43;13.80;99.90
4910;DHT22;2470;49.868;8.660;2024-03-23T14:20:09;16.30;99.90
4910;DHT22;2470;49.868;8.660;2024-03-23T14:22:36;18.00;99.90
4910;DHT22;2470;49.868;8.660;2024-03-23T14:25:02;19.20;96.00
4910;DHT22;2470;49.868;8.660;2024-03-23T14:27:28;17.70;93.30
4910;DHT22;2470;49.868;8.660;2024-03-23T14:29:54;15.70;94.40
4910;DHT22;2470;49.868;8.660;2024-03-23T14:32:21;14.50;97.60
4910;DHT22;2470;49.868;8.660;2024-03-23T14:34:47;13.50;98.70
4910;DHT22;2470;49.868;8.660;2024-03-23T14:37:12;12.50;99.90
4910;DHT22;2470;49.868;8.660;2024-03-23T14:39:38;11.80;99.90
4910;DHT22;2470;49.868;8.660;2024-03-23T14:42:06;11.30;99.90
4910;DHT22;2470;49.868;8.660;2024-03-23T14:44:33;11.30;99.90
4910;DHT22;2470;49.868;8.660;2024-03-23T14:46:59;11.20;99.90
4910;DHT22;2470;49.868;8.660;2024-03-23T14:49:25;10.90;99.90
4910;DHT22;2470;49.868;8.660;2024-03-23T14:51:51;10.80;99.90
4910;DHT22;2470;49.868;8.660;2024-03-23T14:54:17;10.70;99.90
4910;DHT22;2470;49.868;8.660;2024-03-23T14:56:42;11.30;99.20
4910;DHT22;2470;49.868;8.660;2024-03-23T14:59:08;11.50;97.50
4910;DHT22;2470;49.868;8.660;2024-03-23T15:01:34;11.50;93.10
4910;DHT22;2470;49.868;8.660;2024-03-23T15:04:00;11.30;93.40
4910;DHT22;2470;49.868;8.660;2024-03-23T15:06:25;11.20;92.70
4910;DHT22;2470;49.868;8.660;2024-03-23T15:08:51;11.00;92.60
4910;DHT22;2470;49.868;8.660;2024-03-23T15:11:16;10.80;92.70
4910;DHT22;2470;49.868;8.660;2024-03-23T15:13:44;10.50;93.10
4910;DHT22;2470;49.868;8.660;2024-03-23T15:16:10;10.60;94.20
4910;DHT22;2470;49.868;8.660;2024-03-23T15:18:35;10.60;94.20
4910;DHT22;2470;49.868;8.660;2024-03-23T15:21:02;10.60;94.20
4910;DHT22;2470;49.868;8.660;2024-03-23T15:23:31;10.50;94.60
4910;DHT22;2470;49.868;8.660;2024-03-23T15:25:58;10.80;95.10
4910;DHT22;2470;49.868;8.660;2024-03-23T15:28:24;11.30;94.40
4910;DHT22;2470;49.868;8.660;2024-03-23T15:31:06;11.70;94.40
4910;DHT22;2470;49.868;8.660;2024-03-23T15:33:32;12.50;93.70
4910;DHT22;2470;49.868;8.660;2024-03-23T15:36:02;12.50;92.90
4910;DHT22;2470;49.868;8.660;2024-03-23T15:38:27;12.10;92.80
4910;DHT22;2470;49.868;8.660;2024-03-23T15:40:54;11.50;93.80
4910;DHT22;2470;49.868;8.660;2024-03-23T15:43:20;11.20;94.70
4910;DHT22;2470;49.868;8.660;2024-03-23T15:45:59;10.70;95.80
4910;DHT22;2470;49.868;8.660;2024-03-23T15:48:26;10.40;97.00
4910;DHT22;2470;49.868;8.660;2024-03-23T15:51:04;10.10;97.80
4910;DHT22;2470;49.868;8.660;2024-03-23T15:53:30;9.80;99.10
4910;DHT22;2470;49.868;8.660;2024-03-23T15:55:56;9.50;99.90
4910;DHT22;2470;49.868;8.660;2024-03-23T15:58:22;9.30;99.90
4910;DHT22;2470;49.868;8.660;2024-03-23T16:03:28;9.10;99.40
4910;DHT22;2470;49.868;8.660;2024-03-23T16:05:54;9.40;99.90
4910;DHT22;2470;49.868;8.660;2024-03-23T16:08:20;10.50;98.70
4910;DHT22;2470;49.868;8.660;2024-03-23T16:10:46;12.00;96.60
4910;DHT22;2470;49.868;8.660;2024-03-23T16:13:12;12.40;95.10
4910;DHT22;2470;49.868;8.660;2024-03-23T16:15:37;12.20;93.80
4910;DHT22;2470;49.868;8.660;2024-03-23T16:18:03;11.70;93.50
4910;DHT22;2470;49.868;8.660;2024-03-23T16:20:28;11.10;94.80
4910;DHT22;2470;49.868;8.660;2024-03-23T16:22:54;11.20;95.10
4910;DHT22;2470;49.868;8.660;2024-03-23T16:25:21;11.10;94.70
4910;DHT22;2470;49.868;8.660;2024-03-23T16:27:46;10.80;94.80
4910;DHT22;2470;49.868;8.660;2024-03-23T16:30:12;10.60;94.40
4910;DHT22;2470;49.868;8.660;2024-03-23T16:32:38;10.30;95.10
4910;DHT22;2470;49.868;8.660;2024-03-23T16:35:05;10.10;95.10
4910;DHT22;2470;49.868;8.660;2024-03-23T16:37:30;10.00;95.30
4910;DHT22;2470;49.868;8.660;2024-03-23T16:39:56;10.00;95.50
4910;DHT22;2470;49.868;8.660;2024-03-23T16:42:22;10.10;95.90
4910;DHT22;2470;49.868;8.660;2024-03-23T16:44:47;10.50;96.30
4910;DHT22;2470;49.868;8.660;2024-03-23T16:47:13;11.10;95.90
4910;DHT22;2470;49.868;8.660;2024-03-23T16:49:38;11.50;94.70
4910;DHT22;2470;49.868;8.660;2024-03-23T16:52:04;11.50;94.10
4910;DHT22;2470;49.868;8.660;2024-03-23T16:54:30;11.10;94.00
4910;DHT22;2470;49.868;8.660;2024-03-23T16:56:55;10.50;94.30
4910;DHT22;2470;49.868;8.660;2024-03-23T16:59:21;10.10;94.20
4910;DHT22;2470;49.868;8.660;2024-03-23T17:01:46;9.80;95.10
4910;DHT22;2470;49.868;8.660;2024-03-23T17:04:12;9.70;95.80
4910;DHT22;2470;49.868;8.660;2024-03-23T17:06:38;9.50;96.30
4910;DHT22;2470;49.868;8.660;2024-03-23T17:09:05;9.40;96.90
4910;DHT22;2470;49.868;8.660;2024-03-23T17:11:35;9.30;97.30
4910;DHT22;2470;49.868;8.660;2024-03-23T17:14:00;9.20;97.90
4910;DHT22;2470;49.868;8.660;2024-03-23T17:16:26;9.10;99.00